Terminal Aerodrome Forecast
Issued by NWS

Home | Current Version | Previous Version | Text Only | Print | Product List | Glossary On
Versions: 1 2 3 4 5 6 7 8 9 10 11 12 13 14 15 16
740
FTPA31 PHFO 262338
TAFHOG
TAF
PHOG 262338Z 2700/2724 06020G30KT P6SM FEW030 SCT045
     FM270600 06012G18KT P6SM SCT030
     FM270800 06010KT P6SM SCT030
     FM271200 13006KT P6SM SCT030
     FM272000 06012G24KT P6SM SCT030 SCT045=

USA.gov is the U.S. government's official web portal to all federal, state and local government web resources and services.